sensor_id;sensor_type;location;lat;lon;timestamp;P1;durP1;ratioP1;P2;durP2;ratioP2
65871;SDS011;52653;50.080;21.992;2023-03-21T00:03:06;53.50;;;38.80;;
65871;SDS011;52653;50.080;21.992;2023-03-21T00:05:58;56.00;;;40.10;;
65871;SDS011;52653;50.080;21.992;2023-03-21T00:08:54;53.60;;;39.40;;
65871;SDS011;52653;50.080;21.992;2023-03-21T00:11:47;56.60;;;40.50;;
65871;SDS011;52653;50.080;21.992;2023-03-21T00:14:29;56.00;;;42.50;;
65871;SDS011;52653;50.080;21.992;2023-03-21T00:17:24;57.20;;;41.90;;
65871;SDS011;52653;50.080;21.992;2023-03-21T00:20:21;59.00;;;43.10;;
65871;SDS011;52653;50.080;21.992;2023-03-21T00:23:13;61.00;;;45.50;;
65871;SDS011;52653;50.080;21.992;2023-03-21T00:26:06;58.30;;;42.10;;
65871;SDS011;52653;50.080;21.992;2023-03-21T00:28:59;58.20;;;44.30;;
65871;SDS011;52653;50.080;21.992;2023-03-21T00:31:51;66.70;;;46.50;;
65871;SDS011;52653;50.080;21.992;2023-03-21T00:34:44;60.90;;;45.30;;
65871;SDS011;52653;50.080;21.992;2023-03-21T00:37:58;59.30;;;42.70;;
65871;SDS011;52653;50.080;21.992;2023-03-21T00:40:52;59.40;;;43.30;;
65871;SDS011;52653;50.080;21.992;2023-03-21T00:43:42;64.80;;;43.30;;
65871;SDS011;52653;50.080;21.992;2023-03-21T00:46:34;63.70;;;48.30;;
65871;SDS011;52653;50.080;21.992;2023-03-21T00:49:47;73.40;;;50.20;;
65871;SDS011;52653;50.080;21.992;2023-03-21T00:52:41;68.50;;;50.70;;
65871;SDS011;52653;50.080;21.992;2023-03-21T00:55:34;79.80;;;49.40;;
65871;SDS011;52653;50.080;21.992;2023-03-21T00:58:19;70.30;;;50.70;;
65871;SDS011;52653;50.080;21.992;2023-03-21T01:01:12;71.20;;;49.90;;
65871;SDS011;52653;50.080;21.992;2023-03-21T01:04:07;67.00;;;50.10;;
65871;SDS011;52653;50.080;21.992;2023-03-21T01:07:04;69.10;;;47.20;;
65871;SDS011;52653;50.080;21.992;2023-03-21T01:09:51;67.00;;;52.00;;
65871;SDS011;52653;50.080;21.992;2023-03-21T01:12:44;65.60;;;47.70;;
65871;SDS011;52653;50.080;21.992;2023-03-21T01:15:30;66.70;;;49.80;;
65871;SDS011;52653;50.080;21.992;2023-03-21T01:18:24;65.40;;;45.70;;
65871;SDS011;52653;50.080;21.992;2023-03-21T01:21:19;68.70;;;49.00;;
65871;SDS011;52653;50.080;21.992;2023-03-21T01:24:13;62.30;;;46.40;;
65871;SDS011;52653;50.080;21.992;2023-03-21T01:27:05;64.30;;;44.30;;
65871;SDS011;52653;50.080;21.992;2023-03-21T01:29:51;58.70;;;41.50;;
65871;SDS011;52653;50.080;21.992;2023-03-21T01:32:46;59.90;;;42.20;;
65871;SDS011;52653;50.080;21.992;2023-03-21T01:35:18;54.50;;;41.40;;
65871;SDS011;52653;50.080;21.992;2023-03-21T01:37:52;52.60;;;39.40;;
65871;SDS011;52653;50.080;21.992;2023-03-21T01:40:37;55.40;;;41.00;;
65871;SDS011;52653;50.080;21.992;2023-03-21T01:43:31;54.20;;;39.60;;
65871;SDS011;52653;50.080;21.992;2023-03-21T01:49:40;54.90;;;40.20;;
65871;SDS011;52653;50.080;21.992;2023-03-21T01:52:19;53.30;;;39.60;;
65871;SDS011;52653;50.080;21.992;2023-03-21T01:55:09;50.10;;;38.50;;
65871;SDS011;52653;50.080;21.992;2023-03-21T01:58:13;50.60;;;37.10;;
65871;SDS011;52653;50.080;21.992;2023-03-21T02:01:07;48.90;;;36.80;;
65871;SDS011;52653;50.080;21.992;2023-03-21T02:04:01;48.70;;;37.50;;
65871;SDS011;52653;50.080;21.992;2023-03-21T02:07:13;56.00;;;39.70;;
65871;SDS011;52653;50.080;21.992;2023-03-21T02:10:16;56.40;;;42.40;;
65871;SDS011;52653;50.080;21.992;2023-03-21T02:13:10;56.80;;;42.00;;
65871;SDS011;52653;50.080;21.992;2023-03-21T02:15:48;59.90;;;43.30;;
65871;SDS011;52653;50.080;21.992;2023-03-21T02:18:49;61.20;;;44.60;;
65871;SDS011;52653;50.080;21.992;2023-03-21T02:24:55;64.10;;;46.70;;
65871;SDS011;52653;50.080;21.992;2023-03-21T02:28:05;59.00;;;43.20;;
65871;SDS011;52653;50.080;21.992;2023-03-21T02:36:53;59.20;;;45.20;;
65871;SDS011;52653;50.080;21.992;2023-03-21T02:39:48;60.50;;;45.90;;
65871;SDS011;52653;50.080;21.992;2023-03-21T02:42:30;62.10;;;45.20;;
65871;SDS011;52653;50.080;21.992;2023-03-21T02:45:15;60.60;;;46.30;;
65871;SDS011;52653;50.080;21.992;2023-03-21T02:47:58;63.80;;;48.00;;
65871;SDS011;52653;50.080;21.992;2023-03-21T02:50:36;62.60;;;45.90;;
65871;SDS011;52653;50.080;21.992;2023-03-21T02:53:15;63.60;;;49.50;;
65871;SDS011;52653;50.080;21.992;2023-03-21T02:55:51;64.80;;;48.20;;
65871;SDS011;52653;50.080;21.992;2023-03-21T02:58:27;66.00;;;50.40;;
65871;SDS011;52653;50.080;21.992;2023-03-21T03:01:02;66.80;;;50.80;;
65871;SDS011;52653;50.080;21.992;2023-03-21T03:03:44;67.90;;;50.80;;
65871;SDS011;52653;50.080;21.992;2023-03-21T03:06:33;68.60;;;50.60;;
65871;SDS011;52653;50.080;21.992;2023-03-21T03:09:38;68.90;;;52.50;;
65871;SDS011;52653;50.080;21.992;2023-03-21T03:15:04;70.40;;;53.00;;
65871;SDS011;52653;50.080;21.992;2023-03-21T03:17:53;66.70;;;49.90;;
65871;SDS011;52653;50.080;21.992;2023-03-21T03:20:37;63.40;;;49.30;;
65871;SDS011;52653;50.080;21.992;2023-03-21T03:23:22;69.50;;;51.10;;
65871;SDS011;52653;50.080;21.992;2023-03-21T03:26:01;68.90;;;49.30;;
65871;SDS011;52653;50.080;21.992;2023-03-21T03:28:41;68.60;;;48.90;;
65871;SDS011;52653;50.080;21.992;2023-03-21T03:31:20;64.20;;;47.80;;
65871;SDS011;52653;50.080;21.992;2023-03-21T03:34:00;63.00;;;48.00;;
65871;SDS011;52653;50.080;21.992;2023-03-21T03:36:41;63.50;;;46.60;;
65871;SDS011;52653;50.080;21.992;2023-03-21T03:39:20;60.60;;;46.30;;
65871;SDS011;52653;50.080;21.992;2023-03-21T03:41:59;61.00;;;45.30;;
65871;SDS011;52653;50.080;21.992;2023-03-21T03:44:58;62.20;;;48.90;;
65871;SDS011;52653;50.080;21.992;2023-03-21T03:47:34;64.40;;;46.80;;
65871;SDS011;52653;50.080;21.992;2023-03-21T03:50:26;61.70;;;44.70;;
65871;SDS011;52653;50.080;21.992;2023-03-21T03:53:12;65.30;;;47.60;;
65871;SDS011;52653;50.080;21.992;2023-03-21T03:55:53;65.30;;;48.90;;
65871;SDS011;52653;50.080;21.992;2023-03-21T03:58:27;64.90;;;50.10;;
65871;SDS011;52653;50.080;21.992;2023-03-21T04:01:15;64.10;;;48.60;;
65871;SDS011;52653;50.080;21.992;2023-03-21T04:04:09;60.90;;;45.80;;
65871;SDS011;52653;50.080;21.992;2023-03-21T04:06:57;62.80;;;46.50;;
65871;SDS011;52653;50.080;21.992;2023-03-21T04:09:43;61.20;;;46.90;;
65871;SDS011;52653;50.080;21.992;2023-03-21T04:12:18;63.90;;;47.20;;
65871;SDS011;52653;50.080;21.992;2023-03-21T04:15:07;59.80;;;45.90;;
65871;SDS011;52653;50.080;21.992;2023-03-21T04:17:45;58.00;;;43.40;;
65871;SDS011;52653;50.080;21.992;2023-03-21T04:20:18;60.30;;;44.30;;
65871;SDS011;52653;50.080;21.992;2023-03-21T04:23:05;61.20;;;45.10;;
65871;SDS011;52653;50.080;21.992;2023-03-21T04:25:39;64.10;;;44.60;;
65871;SDS011;52653;50.080;21.992;2023-03-21T04:28:29;58.50;;;42.80;;
65871;SDS011;52653;50.080;21.992;2023-03-21T04:31:13;56.30;;;40.20;;
65871;SDS011;52653;50.080;21.992;2023-03-21T04:34:02;56.00;;;42.60;;
65871;SDS011;52653;50.080;21.992;2023-03-21T04:36:40;56.90;;;42.10;;
65871;SDS011;52653;50.080;21.992;2023-03-21T04:39:17;59.60;;;40.80;;
65871;SDS011;52653;50.080;21.992;2023-03-21T04:41:53;55.40;;;40.30;;
65871;SDS011;52653;50.080;21.992;2023-03-21T04:44:26;57.60;;;41.40;;
65871;SDS011;52653;50.080;21.992;2023-03-21T04:47:01;61.70;;;44.00;;
65871;SDS011;52653;50.080;21.992;2023-03-21T04:49:35;57.80;;;40.10;;
65871;SDS011;52653;50.080;21.992;2023-03-21T04:52:08;56.10;;;42.60;;
65871;SDS011;52653;50.080;21.992;2023-03-21T04:54:41;55.20;;;38.10;;
65871;SDS011;52653;50.080;21.992;2023-03-21T04:57:14;58.40;;;39.20;;
65871;SDS011;52653;50.080;21.992;2023-03-21T04:59:47;57.50;;;40.40;;
65871;SDS011;52653;50.080;21.992;2023-03-21T05:02:20;56.50;;;39.20;;
65871;SDS011;52653;50.080;21.992;2023-03-21T05:04:56;56.60;;;38.30;;
65871;SDS011;52653;50.080;21.992;2023-03-21T05:07:32;58.40;;;39.00;;
65871;SDS011;52653;50.080;21.992;2023-03-21T05:10:06;53.60;;;38.10;;
65871;SDS011;52653;50.080;21.992;2023-03-21T05:12:42;53.90;;;36.60;;
65871;SDS011;52653;50.080;21.992;2023-03-21T05:15:15;53.90;;;37.30;;
65871;SDS011;52653;50.080;21.992;2023-03-21T05:17:48;52.00;;;36.80;;
65871;SDS011;52653;50.080;21.992;2023-03-21T05:20:21;49.80;;;36.90;;
65871;SDS011;52653;50.080;21.992;2023-03-21T05:22:54;52.20;;;37.20;;
65871;SDS011;52653;50.080;21.992;2023-03-21T05:25:27;51.80;;;35.50;;
65871;SDS011;52653;50.080;21.992;2023-03-21T05:28:10;54.00;;;37.50;;
65871;SDS011;52653;50.080;21.992;2023-03-21T05:30:53;52.10;;;36.50;;
65871;SDS011;52653;50.080;21.992;2023-03-21T05:33:26;52.10;;;36.20;;
65871;SDS011;52653;50.080;21.992;2023-03-21T05:36:00;53.50;;;35.00;;
65871;SDS011;52653;50.080;21.992;2023-03-21T05:38:33;55.70;;;37.20;;
65871;SDS011;52653;50.080;21.992;2023-03-21T05:41:18;56.60;;;38.00;;
65871;SDS011;52653;50.080;21.992;2023-03-21T05:44:04;52.20;;;34.10;;
65871;SDS011;52653;50.080;21.992;2023-03-21T05:46:37;53.60;;;35.70;;
65871;SDS011;52653;50.080;21.992;2023-03-21T05:49:12;50.50;;;34.20;;
65871;SDS011;52653;50.080;21.992;2023-03-21T05:51:45;48.90;;;35.10;;
65871;SDS011;52653;50.080;21.992;2023-03-21T05:54:23;56.40;;;38.10;;
65871;SDS011;52653;50.080;21.992;2023-03-21T05:56:59;51.70;;;33.90;;
65871;SDS011;52653;50.080;21.992;2023-03-21T06:00:08;53.90;;;34.90;;
65871;SDS011;52653;50.080;21.992;2023-03-21T06:02:45;52.00;;;34.50;;
65871;SDS011;52653;50.080;21.992;2023-03-21T06:05:36;53.20;;;34.70;;
65871;SDS011;52653;50.080;21.992;2023-03-21T06:08:12;51.50;;;35.60;;
65871;SDS011;52653;50.080;21.992;2023-03-21T06:10:46;50.30;;;34.20;;
65871;SDS011;52653;50.080;21.992;2023-03-21T06:13:19;51.70;;;35.30;;
65871;SDS011;52653;50.080;21.992;2023-03-21T06:15:52;52.70;;;34.90;;
65871;SDS011;52653;50.080;21.992;2023-03-21T06:18:26;54.30;;;36.30;;
65871;SDS011;52653;50.080;21.992;2023-03-21T06:21:15;53.80;;;35.10;;
65871;SDS011;52653;50.080;21.992;2023-03-21T06:23:49;52.60;;;34.40;;
65871;SDS011;52653;50.080;21.992;2023-03-21T06:26:23;53.80;;;36.30;;
65871;SDS011;52653;50.080;21.992;2023-03-21T06:28:58;51.10;;;34.20;;
65871;SDS011;52653;50.080;21.992;2023-03-21T06:31:31;53.30;;;34.40;;
65871;SDS011;52653;50.080;21.992;2023-03-21T06:34:04;49.50;;;34.50;;
65871;SDS011;52653;50.080;21.992;2023-03-21T06:36:39;53.20;;;32.80;;
65871;SDS011;52653;50.080;21.992;2023-03-21T06:39:14;49.30;;;33.00;;
65871;SDS011;52653;50.080;21.992;2023-03-21T06:41:50;52.60;;;34.20;;
65871;SDS011;52653;50.080;21.992;2023-03-21T06:44:26;47.00;;;32.00;;
65871;SDS011;52653;50.080;21.992;2023-03-21T06:47:03;51.60;;;34.00;;
65871;SDS011;52653;50.080;21.992;2023-03-21T06:49:41;51.10;;;33.80;;
65871;SDS011;52653;50.080;21.992;2023-03-21T06:52:15;49.50;;;33.20;;
65871;SDS011;52653;50.080;21.992;2023-03-21T06:55:03;48.60;;;32.30;;
65871;SDS011;52653;50.080;21.992;2023-03-21T06:57:41;50.70;;;33.00;;
65871;SDS011;52653;50.080;21.992;2023-03-21T07:00:17;49.40;;;32.60;;
65871;SDS011;52653;50.080;21.992;2023-03-21T07:02:52;43.90;;;30.30;;
65871;SDS011;52653;50.080;21.992;2023-03-21T07:05:27;46.10;;;32.00;;
65871;SDS011;52653;50.080;21.992;2023-03-21T07:08:01;43.80;;;30.80;;
65871;SDS011;52653;50.080;21.992;2023-03-21T07:10:36;45.70;;;31.50;;
65871;SDS011;52653;50.080;21.992;2023-03-21T07:13:12;40.60;;;28.40;;
65871;SDS011;52653;50.080;21.992;2023-03-21T07:15:50;42.10;;;30.50;;
65871;SDS011;52653;50.080;21.992;2023-03-21T07:18:26;44.40;;;29.60;;
65871;SDS011;52653;50.080;21.992;2023-03-21T07:21:01;41.40;;;28.40;;
65871;SDS011;52653;50.080;21.992;2023-03-21T07:23:35;46.50;;;33.40;;
65871;SDS011;52653;50.080;21.992;2023-03-21T07:26:08;46.50;;;32.60;;
65871;SDS011;52653;50.080;21.992;2023-03-21T07:28:41;44.60;;;33.00;;
65871;SDS011;52653;50.080;21.992;2023-03-21T07:31:15;42.20;;;30.90;;
65871;SDS011;52653;50.080;21.992;2023-03-21T07:33:59;41.80;;;27.40;;
65871;SDS011;52653;50.080;21.992;2023-03-21T07:36:44;40.20;;;28.80;;
65871;SDS011;52653;50.080;21.992;2023-03-21T07:39:16;36.80;;;26.20;;
65871;SDS011;52653;50.080;21.992;2023-03-21T07:41:49;38.20;;;26.20;;
65871;SDS011;52653;50.080;21.992;2023-03-21T07:44:35;36.90;;;27.10;;
65871;SDS011;52653;50.080;21.992;2023-03-21T07:47:08;33.10;;;24.50;;
65871;SDS011;52653;50.080;21.992;2023-03-21T07:49:43;32.70;;;25.30;;
65871;SDS011;52653;50.080;21.992;2023-03-21T07:52:16;35.40;;;25.10;;
65871;SDS011;52653;50.080;21.992;2023-03-21T07:54:52;34.20;;;25.20;;
65871;SDS011;52653;50.080;21.992;2023-03-21T07:57:25;36.20;;;25.50;;
65871;SDS011;52653;50.080;21.992;2023-03-21T07:59:58;36.90;;;24.80;;
65871;SDS011;52653;50.080;21.992;2023-03-21T08:02:40;34.80;;;24.80;;
65871;SDS011;52653;50.080;21.992;2023-03-21T08:05:13;29.20;;;22.00;;
65871;SDS011;52653;50.080;21.992;2023-03-21T08:07:52;34.40;;;25.40;;
65871;SDS011;52653;50.080;21.992;2023-03-21T08:10:25;28.30;;;19.70;;
65871;SDS011;52653;50.080;21.992;2023-03-21T08:12:58;27.30;;;20.80;;
65871;SDS011;52653;50.080;21.992;2023-03-21T08:15:32;29.50;;;22.00;;
65871;SDS011;52653;50.080;21.992;2023-03-21T08:18:09;27.10;;;18.50;;
65871;SDS011;52653;50.080;21.992;2023-03-21T08:20:42;26.40;;;18.90;;
65871;SDS011;52653;50.080;21.992;2023-03-21T08:23:15;24.10;;;18.00;;
65871;SDS011;52653;50.080;21.992;2023-03-21T08:25:51;27.00;;;20.10;;
65871;SDS011;52653;50.080;21.992;2023-03-21T08:28:26;29.00;;;20.60;;
65871;SDS011;52653;50.080;21.992;2023-03-21T08:31:01;29.80;;;23.50;;
65871;SDS011;52653;50.080;21.992;2023-03-21T08:33:39;25.10;;;19.20;;
65871;SDS011;52653;50.080;21.992;2023-03-21T08:36:12;25.70;;;18.00;;
65871;SDS011;52653;50.080;21.992;2023-03-21T08:38:45;21.90;;;15.40;;
65871;SDS011;52653;50.080;21.992;2023-03-21T08:41:22;32.90;;;20.20;;
65871;SDS011;52653;50.080;21.992;2023-03-21T08:43:55;26.70;;;19.10;;
65871;SDS011;52653;50.080;21.992;2023-03-21T08:46:32;32.70;;;23.60;;
65871;SDS011;52653;50.080;21.992;2023-03-21T08:49:05;17.00;;;13.20;;
65871;SDS011;52653;50.080;21.992;2023-03-21T08:51:38;15.40;;;11.70;;
65871;SDS011;52653;50.080;21.992;2023-03-21T08:54:19;14.20;;;10.80;;
65871;SDS011;52653;50.080;21.992;2023-03-21T08:56:52;12.00;;;9.20;;
65871;SDS011;52653;50.080;21.992;2023-03-21T08:59:25;13.70;;;10.50;;
65871;SDS011;52653;50.080;21.992;2023-03-21T09:02:01;11.80;;;9.40;;
65871;SDS011;52653;50.080;21.992;2023-03-21T09:04:34;15.10;;;11.30;;
65871;SDS011;52653;50.080;21.992;2023-03-21T09:07:07;15.90;;;11.90;;
65871;SDS011;52653;50.080;21.992;2023-03-21T09:09:41;15.30;;;12.10;;
65871;SDS011;52653;50.080;21.992;2023-03-21T09:12:19;14.80;;;11.40;;
65871;SDS011;52653;50.080;21.992;2023-03-21T09:14:58;13.10;;;9.80;;
65871;SDS011;52653;50.080;21.992;2023-03-21T09:17:31;12.80;;;9.60;;
65871;SDS011;52653;50.080;21.992;2023-03-21T09:20:05;15.20;;;11.90;;
65871;SDS011;52653;50.080;21.992;2023-03-21T09:22:44;13.60;;;11.10;;
65871;SDS011;52653;50.080;21.992;2023-03-21T09:25:18;14.60;;;10.60;;
65871;SDS011;52653;50.080;21.992;2023-03-21T09:27:51;12.40;;;9.30;;
65871;SDS011;52653;50.080;21.992;2023-03-21T09:30:37;13.70;;;8.20;;
65871;SDS011;52653;50.080;21.992;2023-03-21T09:35:50;11.40;;;7.90;;
65871;SDS011;52653;50.080;21.992;2023-03-21T09:38:44;11.00;;;8.30;;
65871;SDS011;52653;50.080;21.992;2023-03-21T09:41:26;16.10;;;12.30;;
65871;SDS011;52653;50.080;21.992;2023-03-21T09:44:30;13.70;;;10.50;;
65871;SDS011;52653;50.080;21.992;2023-03-21T09:47:15;13.30;;;10.60;;
65871;SDS011;52653;50.080;21.992;2023-03-21T09:49:51;12.20;;;9.20;;
65871;SDS011;52653;50.080;21.992;2023-03-21T09:52:44;16.60;;;12.50;;
65871;SDS011;52653;50.080;21.992;2023-03-21T09:55:21;14.40;;;10.70;;
65871;SDS011;52653;50.080;21.992;2023-03-21T09:58:01;14.10;;;9.50;;
65871;SDS011;52653;50.080;21.992;2023-03-21T10:00:42;15.30;;;11.20;;
65871;SDS011;52653;50.080;21.992;2023-03-21T10:03:30;14.70;;;11.00;;
65871;SDS011;52653;50.080;21.992;2023-03-21T10:06:08;15.90;;;11.50;;
65871;SDS011;52653;50.080;21.992;2023-03-21T10:08:48;15.40;;;11.50;;
65871;SDS011;52653;50.080;21.992;2023-03-21T10:11:22;16.00;;;11.40;;
65871;SDS011;52653;50.080;21.992;2023-03-21T10:14:00;14.40;;;10.10;;
65871;SDS011;52653;50.080;21.992;2023-03-21T10:16:39;14.30;;;10.00;;
65871;SDS011;52653;50.080;21.992;2023-03-21T10:19:15;15.40;;;10.40;;
65871;SDS011;52653;50.080;21.992;2023-03-21T10:21:49;13.90;;;9.60;;
65871;SDS011;52653;50.080;21.992;2023-03-21T10:24:32;17.40;;;13.10;;
65871;SDS011;52653;50.080;21.992;2023-03-21T10:27:06;15.20;;;11.70;;
65871;SDS011;52653;50.080;21.992;2023-03-21T10:29:42;15.20;;;11.30;;
65871;SDS011;52653;50.080;21.992;2023-03-21T10:32:15;14.20;;;11.00;;
65871;SDS011;52653;50.080;21.992;2023-03-21T10:34:51;14.20;;;10.80;;
65871;SDS011;52653;50.080;21.992;2023-03-21T10:37:27;13.00;;;10.10;;
65871;SDS011;52653;50.080;21.992;2023-03-21T10:40:02;14.40;;;10.90;;
65871;SDS011;52653;50.080;21.992;2023-03-21T10:42:47;14.20;;;10.40;;
65871;SDS011;52653;50.080;21.992;2023-03-21T10:45:21;13.90;;;11.00;;
65871;SDS011;52653;50.080;21.992;2023-03-21T10:47:55;13.20;;;10.50;;
65871;SDS011;52653;50.080;21.992;2023-03-21T10:50:29;15.40;;;12.00;;
65871;SDS011;52653;50.080;21.992;2023-03-21T10:53:02;13.00;;;9.90;;
65871;SDS011;52653;50.080;21.992;2023-03-21T10:55:44;12.90;;;10.20;;
65871;SDS011;52653;50.080;21.992;2023-03-21T10:58:24;11.70;;;8.70;;
65871;SDS011;52653;50.080;21.992;2023-03-21T11:01:01;12.40;;;8.50;;
65871;SDS011;52653;50.080;21.992;2023-03-21T11:03:37;11.30;;;8.30;;
65871;SDS011;52653;50.080;21.992;2023-03-21T11:06:14;10.40;;;7.90;;
65871;SDS011;52653;50.080;21.992;2023-03-21T11:08:59;12.10;;;9.20;;
65871;SDS011;52653;50.080;21.992;2023-03-21T11:11:50;12.30;;;8.80;;
65871;SDS011;52653;50.080;21.992;2023-03-21T11:14:26;12.60;;;8.50;;
65871;SDS011;52653;50.080;21.992;2023-03-21T11:17:19;12.90;;;8.50;;
65871;SDS011;52653;50.080;21.992;2023-03-21T11:19:56;13.60;;;9.30;;
65871;SDS011;52653;50.080;21.992;2023-03-21T11:22:36;12.90;;;9.30;;
65871;SDS011;52653;50.080;21.992;2023-03-21T11:25:18;14.40;;;10.80;;
65871;SDS011;52653;50.080;21.992;2023-03-21T11:27:54;12.80;;;9.20;;
65871;SDS011;52653;50.080;21.992;2023-03-21T11:30:27;11.80;;;8.30;;
65871;SDS011;52653;50.080;21.992;2023-03-21T11:33:01;13.20;;;8.80;;
65871;SDS011;52653;50.080;21.992;2023-03-21T11:35:37;15.50;;;10.40;;
65871;SDS011;52653;50.080;21.992;2023-03-21T11:38:23;19.80;;;14.20;;
65871;SDS011;52653;50.080;21.992;2023-03-21T11:41:03;19.20;;;13.00;;
65871;SDS011;52653;50.080;21.992;2023-03-21T11:43:57;15.30;;;9.60;;
65871;SDS011;52653;50.080;21.992;2023-03-21T11:46:52;18.60;;;14.40;;
65871;SDS011;52653;50.080;21.992;2023-03-21T11:49:45;13.60;;;9.80;;
65871;SDS011;52653;50.080;21.992;2023-03-21T11:52:52;18.50;;;12.40;;
65871;SDS011;52653;50.080;21.992;2023-03-21T11:56:12;12.90;;;9.00;;
65871;SDS011;52653;50.080;21.992;2023-03-21T12:02:13;14.80;;;9.40;;
65871;SDS011;52653;50.080;21.992;2023-03-21T12:04:58;13.50;;;9.00;;
65871;SDS011;52653;50.080;21.992;2023-03-21T12:07:38;12.60;;;9.50;;
65871;SDS011;52653;50.080;21.992;2023-03-21T12:10:27;13.80;;;9.80;;
65871;SDS011;52653;50.080;21.992;2023-03-21T12:13:21;14.50;;;10.30;;
65871;SDS011;52653;50.080;21.992;2023-03-21T12:16:10;14.40;;;10.40;;
65871;SDS011;52653;50.080;21.992;2023-03-21T12:19:00;17.80;;;12.00;;
65871;SDS011;52653;50.080;21.992;2023-03-21T12:21:55;16.40;;;11.60;;
65871;SDS011;52653;50.080;21.992;2023-03-21T12:24:37;14.80;;;10.50;;
65871;SDS011;52653;50.080;21.992;2023-03-21T12:27:31;15.20;;;10.20;;
65871;SDS011;52653;50.080;21.992;2023-03-21T12:30:15;17.60;;;11.30;;
65871;SDS011;52653;50.080;21.992;2023-03-21T12:33:06;15.10;;;11.30;;
65871;SDS011;52653;50.080;21.992;2023-03-21T12:36:00;14.00;;;9.90;;
65871;SDS011;52653;50.080;21.992;2023-03-21T12:38:47;15.40;;;11.00;;
65871;SDS011;52653;50.080;21.992;2023-03-21T12:41:33;15.60;;;11.00;;
65871;SDS011;52653;50.080;21.992;2023-03-21T12:44:18;16.00;;;11.00;;
65871;SDS011;52653;50.080;21.992;2023-03-21T12:46:58;16.80;;;11.60;;
65871;SDS011;52653;50.080;21.992;2023-03-21T12:49:38;17.30;;;12.60;;
65871;SDS011;52653;50.080;21.992;2023-03-21T12:52:27;16.80;;;12.50;;
65871;SDS011;52653;50.080;21.992;2023-03-21T12:55:05;19.70;;;13.40;;
65871;SDS011;52653;50.080;21.992;2023-03-21T12:57:46;17.70;;;12.50;;
65871;SDS011;52653;50.080;21.992;2023-03-21T13:00:47;18.40;;;12.50;;
65871;SDS011;52653;50.080;21.992;2023-03-21T13:03:44;17.90;;;12.40;;
65871;SDS011;52653;50.080;21.992;2023-03-21T13:06:41;17.50;;;13.10;;
65871;SDS011;52653;50.080;21.992;2023-03-21T13:09:19;19.60;;;15.00;;
65871;SDS011;52653;50.080;21.992;2023-03-21T13:12:23;19.90;;;13.40;;
65871;SDS011;52653;50.080;21.992;2023-03-21T13:15:40;19.60;;;14.50;;
65871;SDS011;52653;50.080;21.992;2023-03-21T13:18:46;18.80;;;14.00;;
65871;SDS011;52653;50.080;21.992;2023-03-21T13:21:48;19.80;;;13.80;;
65871;SDS011;52653;50.080;21.992;2023-03-21T13:24:36;20.10;;;14.60;;
65871;SDS011;52653;50.080;21.992;2023-03-21T13:27:25;31.10;;;21.60;;
65871;SDS011;52653;50.080;21.992;2023-03-21T13:30:18;27.10;;;21.30;;
65871;SDS011;52653;50.080;21.992;2023-03-21T13:33:06;20.40;;;15.80;;
65871;SDS011;52653;50.080;21.992;2023-03-21T13:36:05;18.20;;;12.50;;
65871;SDS011;52653;50.080;21.992;2023-03-21T13:39:04;17.60;;;13.10;;
65871;SDS011;52653;50.080;21.992;2023-03-21T13:41:49;19.40;;;14.30;;
65871;SDS011;52653;50.080;21.992;2023-03-21T13:44:32;19.30;;;14.40;;
65871;SDS011;52653;50.080;21.992;2023-03-21T13:47:30;16.10;;;12.50;;
65871;SDS011;52653;50.080;21.992;2023-03-21T13:50:21;17.40;;;13.70;;
65871;SDS011;52653;50.080;21.992;2023-03-21T13:59:04;22.20;;;15.20;;
65871;SDS011;52653;50.080;21.992;2023-03-21T14:01:58;23.80;;;18.40;;
65871;SDS011;52653;50.080;21.992;2023-03-21T14:04:41;22.20;;;16.30;;
65871;SDS011;52653;50.080;21.992;2023-03-21T14:07:38;23.20;;;16.30;;
65871;SDS011;52653;50.080;21.992;2023-03-21T14:10:28;21.90;;;15.80;;
65871;SDS011;52653;50.080;21.992;2023-03-21T14:13:04;22.30;;;16.90;;
65871;SDS011;52653;50.080;21.992;2023-03-21T14:15:41;24.60;;;17.10;;
65871;SDS011;52653;50.080;21.992;2023-03-21T14:18:26;23.50;;;16.70;;
65871;SDS011;52653;50.080;21.992;2023-03-21T14:21:45;23.40;;;17.20;;
65871;SDS011;52653;50.080;21.992;2023-03-21T14:24:26;19.20;;;12.90;;
65871;SDS011;52653;50.080;21.992;2023-03-21T14:27:12;19.00;;;14.30;;
65871;SDS011;52653;50.080;21.992;2023-03-21T14:30:09;18.50;;;13.80;;
65871;SDS011;52653;50.080;21.992;2023-03-21T14:32:50;23.40;;;16.60;;
65871;SDS011;52653;50.080;21.992;2023-03-21T14:35:47;21.10;;;14.40;;
65871;SDS011;52653;50.080;21.992;2023-03-21T14:38:21;21.40;;;14.60;;
65871;SDS011;52653;50.080;21.992;2023-03-21T14:41:03;20.10;;;14.60;;
65871;SDS011;52653;50.080;21.992;2023-03-21T14:44:19;19.80;;;13.70;;
65871;SDS011;52653;50.080;21.992;2023-03-21T14:47:07;19.50;;;13.30;;
65871;SDS011;52653;50.080;21.992;2023-03-21T14:50:01;19.60;;;13.40;;
65871;SDS011;52653;50.080;21.992;2023-03-21T14:52:36;20.10;;;13.50;;
65871;SDS011;52653;50.080;21.992;2023-03-21T14:55:33;21.60;;;13.90;;
65871;SDS011;52653;50.080;21.992;2023-03-21T14:58:34;24.00;;;15.10;;
65871;SDS011;52653;50.080;21.992;2023-03-21T15:01:26;22.80;;;15.50;;
65871;SDS011;52653;50.080;21.992;2023-03-21T15:04:21;28.20;;;17.80;;
65871;SDS011;52653;50.080;21.992;2023-03-21T15:07:21;31.70;;;22.60;;
65871;SDS011;52653;50.080;21.992;2023-03-21T15:10:13;28.30;;;16.80;;
65871;SDS011;52653;50.080;21.992;2023-03-21T15:12:53;29.50;;;18.70;;
65871;SDS011;52653;50.080;21.992;2023-03-21T15:15:37;13.20;;;8.50;;
65871;SDS011;52653;50.080;21.992;2023-03-21T15:18:16;27.40;;;16.30;;
65871;SDS011;52653;50.080;21.992;2023-03-21T15:20:59;38.00;;;22.40;;
65871;SDS011;52653;50.080;21.992;2023-03-21T15:23:39;33.50;;;21.70;;
65871;SDS011;52653;50.080;21.992;2023-03-21T15:26:17;19.20;;;11.10;;
65871;SDS011;52653;50.080;21.992;2023-03-21T15:28:56;18.70;;;9.20;;
65871;SDS011;52653;50.080;21.992;2023-03-21T15:31:34;20.40;;;10.60;;
65871;SDS011;52653;50.080;21.992;2023-03-21T15:34:13;21.60;;;10.50;;
65871;SDS011;52653;50.080;21.992;2023-03-21T15:36:56;30.90;;;18.50;;
65871;SDS011;52653;50.080;21.992;2023-03-21T15:39:36;49.30;;;33.70;;
65871;SDS011;52653;50.080;21.992;2023-03-21T15:42:30;52.00;;;35.50;;
65871;SDS011;52653;50.080;21.992;2023-03-21T15:45:16;48.90;;;33.70;;
65871;SDS011;52653;50.080;21.992;2023-03-21T15:47:54;46.10;;;29.90;;
65871;SDS011;52653;50.080;21.992;2023-03-21T15:50:34;33.30;;;21.00;;
65871;SDS011;52653;50.080;21.992;2023-03-21T15:53:15;27.70;;;17.10;;
65871;SDS011;52653;50.080;21.992;2023-03-21T15:56:09;17.20;;;11.90;;
65871;SDS011;52653;50.080;21.992;2023-03-21T15:58:54;17.70;;;11.50;;
65871;SDS011;52653;50.080;21.992;2023-03-21T16:01:40;16.80;;;11.60;;
65871;SDS011;52653;50.080;21.992;2023-03-21T16:04:26;18.70;;;12.50;;
65871;SDS011;52653;50.080;21.992;2023-03-21T16:07:14;15.10;;;10.20;;
65871;SDS011;52653;50.080;21.992;2023-03-21T16:10:27;14.10;;;9.80;;
65871;SDS011;52653;50.080;21.992;2023-03-21T16:13:22;15.80;;;11.20;;